Time;durP1;ratioP1;P1;durP2;ratioP2;P2;SDS_P1;SDS_P2;PMS_P1;PMS_P2;Temp;Humidity;BMP_temperature;BMP_pressure;BME280_temperature;BME280_humidity;BME280_pressure;Samples;Min_cycle;Max_cycle;Signal;HPM_P1;HPM_P2
2021/06/06 00:00:01;;;;;;;9.65;7.70;;;18.20;99.90;;;;;;5035858;28;20205;-75
2021/06/06 00:02:27;;;;;;;9.57;7.68;;;18.20;99.90;;;;;;5036036;28;20220;-75
2021/06/06 00:04:53;;;;;;;9.85;7.18;;;18.10;99.90;;;;;;5035996;28;20200;-75
2021/06/06 00:07:20;;;;;;;8.15;7.32;;;18.20;99.90;;;;;;5035976;28;20204;-74
2021/06/06 00:09:47;;;;;;;9.00;7.38;;;18.20;99.90;;;;;;5035860;28;20205;-76
2021/06/06 00:12:14;;;;;;;9.98;7.43;;;18.20;99.90;;;;;;5035661;28;20311;-75
2021/06/06 00:14:41;;;;;;;9.93;7.10;;;18.20;99.90;;;;;;5035450;28;20245;-75
2021/06/06 00:17:10;;;;;;;9.57;7.13;;;18.20;99.90;;;;;;5035507;28;20250;-75
2021/06/06 00:19:38;;;;;;;8.82;6.95;;;18.20;99.90;;;;;;5035735;28;20219;-74
2021/06/06 00:22:06;;;;;;;10.00;7.25;;;18.20;99.90;;;;;;5035817;28;20699;-75
2021/06/06 00:24:34;;;;;;;7.65;6.60;;;18.20;99.90;;;;;;5035667;28;20258;-75
2021/06/06 00:27:02;;;;;;;10.18;7.00;;;18.20;99.90;;;;;;5035403;28;20235;-75
2021/06/06 00:29:29;;;;;;;10.20;6.70;;;18.20;99.90;;;;;;5035549;28;20235;-74
2021/06/06 00:31:56;;;;;;;8.50;6.43;;;18.20;99.90;;;;;;5034853;28;20801;-75
2021/06/06 00:34:23;;;;;;;8.07;6.32;;;18.20;99.90;;;;;;5035415;28;20318;-75
2021/06/06 00:36:49;;;;;;;9.55;7.05;;;18.10;99.90;;;;;;5035279;28;20207;-75
2021/06/06 00:39:16;;;;;;;9.25;6.20;;;18.10;99.90;;;;;;5035273;28;20212;-75
2021/06/06 00:41:50;;;;;;;6.80;5.75;;;18.00;99.90;;;;;;5034815;28;20362;-75
2021/06/06 00:44:19;;;;;;;7.28;6.28;;;18.00;99.90;;;;;;5035081;28;20202;-76
2021/06/06 00:46:45;;;;;;;7.78;6.28;;;18.00;99.90;;;;;;5035040;28;20851;-75
2021/06/06 00:49:12;;;;;;;7.40;6.22;;;17.90;99.90;;;;;;5035194;28;20299;-75
2021/06/06 00:51:42;;;;;;;8.55;6.22;;;18.00;99.90;;;;;;5035083;28;20224;-75
2021/06/06 00:54:13;;;;;;;7.78;6.28;;;17.90;99.90;;;;;;5035039;28;20216;-75
2021/06/06 00:56:40;;;;;;;9.25;6.35;;;17.90;99.90;;;;;;5035088;28;20204;-75
2021/06/06 00:59:07;;;;;;;8.52;6.28;;;17.90;99.90;;;;;;5035018;28;20243;-75
2021/06/06 01:01:35;;;;;;;8.45;6.72;;;17.90;99.90;;;;;;5034849;28;20311;-75
2021/06/06 01:04:03;;;;;;;9.02;6.03;;;18.00;99.90;;;;;;5034480;28;20390;-75
2021/06/06 01:06:32;;;;;;;8.45;6.63;;;18.00;99.90;;;;;;5034684;28;20624;-76
2021/06/06 01:08:59;;;;;;;9.10;6.18;;;18.00;99.90;;;;;;5034769;28;20204;-76
2021/06/06 01:11:33;;;;;;;7.20;5.85;;;18.00;99.90;;;;;;5034522;28;20231;-75
2021/06/06 01:14:05;;;;;;;7.88;5.50;;;18.00;99.90;;;;;;5034713;28;20188;-75
2021/06/06 01:16:34;;;;;;;7.70;5.78;;;18.00;99.90;;;;;;5034687;28;20643;-75
2021/06/06 01:19:08;;;;;;;6.65;5.15;;;18.00;99.90;;;;;;5034563;28;20211;-76
2021/06/06 01:21:54;;;;;;;6.25;4.93;;;18.00;99.90;;;;;;5034271;28;20227;-75
2021/06/06 01:24:30;;;;;;;6.35;4.60;;;18.00;99.90;;;;;;5034372;28;20204;-76
2021/06/06 01:26:59;;;;;;;6.28;5.10;;;18.00;99.90;;;;;;5034491;28;20610;-75
2021/06/06 01:29:38;;;;;;;5.95;5.35;;;18.00;99.90;;;;;;5034360;28;20290;-76
2021/06/06 01:32:11;;;;;;;8.32;5.65;;;18.00;99.90;;;;;;5034070;28;20263;-75
2021/06/06 01:34:39;;;;;;;6.30;4.78;;;18.00;99.90;;;;;;5034272;28;20311;-76
2021/06/06 01:37:09;;;;;;;6.50;5.13;;;17.90;99.90;;;;;;5034170;28;20239;-75
2021/06/06 01:39:40;;;;;;;7.53;4.85;;;17.90;99.90;;;;;;5034159;28;20204;-76
2021/06/06 01:42:11;;;;;;;6.25;5.10;;;17.90;99.90;;;;;;5033952;28;20234;-76
2021/06/06 01:44:39;;;;;;;6.00;5.38;;;17.90;99.90;;;;;;5033953;28;20287;-76
2021/06/06 01:47:10;;;;;;;8.32;5.75;;;17.90;99.90;;;;;;5034078;28;20214;-76
2021/06/06 01:49:43;;;;;;;6.18;5.05;;;17.90;99.90;;;;;;5033946;28;20211;-76
2021/06/06 01:52:11;;;;;;;5.40;4.53;;;17.90;99.90;;;;;;5033890;28;20800;-76
2021/06/06 01:54:41;;;;;;;7.05;5.75;;;17.90;99.90;;;;;;5033703;28;20223;-76
2021/06/06 01:57:11;;;;;;;8.70;5.20;;;17.90;99.90;;;;;;5034230;28;20586;-76
2021/06/06 01:59:41;;;;;;;5.53;4.80;;;17.90;99.90;;;;;;5033924;28;20250;-76
2021/06/06 02:02:08;;;;;;;6.63;5.07;;;17.90;99.90;;;;;;5033399;28;20760;-76
2021/06/06 02:04:35;;;;;;;6.53;4.60;;;17.90;99.90;;;;;;5033910;28;20226;-76
2021/06/06 02:07:08;;;;;;;6.55;4.63;;;17.90;99.90;;;;;;5033765;28;20361;-76
2021/06/06 02:09:38;;;;;;;5.25;4.75;;;17.90;99.90;;;;;;5034413;28;20210;-76
2021/06/06 02:12:08;;;;;;;6.47;4.80;;;17.90;99.90;;;;;;5034056;28;20230;-76
2021/06/06 02:14:37;;;;;;;5.55;4.20;;;17.80;99.90;;;;;;5033692;28;20223;-76
2021/06/06 02:17:08;;;;;;;8.35;5.10;;;17.80;99.90;;;;;;5032661;28;20682;-76
2021/06/06 02:19:35;;;;;;;6.07;4.80;;;17.80;99.90;;;;;;5033328;28;20569;-75
2021/06/06 02:22:07;;;;;;;5.00;4.50;;;17.80;99.90;;;;;;5033411;28;20311;-76
2021/06/06 02:24:34;;;;;;;5.53;4.50;;;17.90;99.90;;;;;;5033589;28;20291;-76
2021/06/06 02:27:09;;;;;;;3.90;3.42;;;17.80;99.90;;;;;;5033424;28;20330;-76
2021/06/06 02:29:44;;;;;;;6.00;5.20;;;17.80;99.90;;;;;;5033688;28;20298;-76
2021/06/06 02:32:17;;;;;;;6.32;4.80;;;17.80;99.90;;;;;;5032906;28;20231;-76
2021/06/06 02:34:52;;;;;;;7.93;4.63;;;17.80;99.90;;;;;;5033646;28;20311;-76
2021/06/06 02:37:24;;;;;;;5.63;4.80;;;17.80;99.90;;;;;;5033548;28;20422;-76
2021/06/06 02:39:57;;;;;;;5.55;4.20;;;17.80;99.90;;;;;;5033513;28;20258;-76
2021/06/06 02:42:29;;;;;;;6.38;4.90;;;17.80;99.90;;;;;;5033253;28;20307;-76
2021/06/06 02:45:00;;;;;;;6.97;4.47;;;17.80;99.90;;;;;;5033500;28;20318;-76
2021/06/06 02:47:32;;;;;;;5.32;4.60;;;17.80;99.90;;;;;;5033410;28;20210;-76
2021/06/06 02:50:05;;;;;;;5.53;4.70;;;17.80;99.90;;;;;;5033222;28;20215;-76
2021/06/06 02:52:41;;;;;;;9.88;7.72;;;17.70;99.90;;;;;;5033332;28;20564;-76
2021/06/06 02:55:11;;;;;;;5.65;4.55;;;17.70;99.90;;;;;;5033277;28;20215;-76
2021/06/06 02:57:40;;;;;;;5.55;4.55;;;17.60;99.90;;;;;;5033479;28;20292;-76
2021/06/06 03:00:12;;;;;;;5.13;4.53;;;17.50;99.90;;;;;;5033075;28;20232;-75
2021/06/06 03:02:42;;;;;;;6.97;5.53;;;17.40;99.90;;;;;;5033574;28;20286;-76
2021/06/06 03:05:12;;;;;;;5.22;4.70;;;17.50;99.90;;;;;;5033197;28;20662;-75
2021/06/06 03:07:45;;;;;;;4.70;4.10;;;17.50;99.90;;;;;;5033157;28;20729;-75
2021/06/06 03:10:13;;;;;;;4.97;3.40;;;17.50;99.90;;;;;;5033040;28;20208;-76
2021/06/06 03:12:42;;;;;;;6.63;3.83;;;17.50;99.90;;;;;;5033115;28;20230;-76
2021/06/06 03:15:12;;;;;;;5.63;3.75;;;17.50;99.90;;;;;;5033045;28;20347;-75
2021/06/06 03:17:42;;;;;;;8.75;4.35;;;17.40;99.90;;;;;;5033089;28;20208;-76
2021/06/06 03:20:13;;;;;;;4.95;4.22;;;17.50;99.90;;;;;;5032841;28;20291;-76
2021/06/06 03:22:42;;;;;;;6.00;3.80;;;17.40;99.90;;;;;;5033097;28;20311;-75
2021/06/06 03:25:14;;;;;;;5.40;4.43;;;17.40;99.90;;;;;;5033303;28;20227;-76
2021/06/06 03:27:45;;;;;;;5.00;3.85;;;17.40;99.90;;;;;;5033847;28;20328;-75
2021/06/06 03:30:17;;;;;;;4.63;3.85;;;17.40;99.90;;;;;;5036455;28;20294;-75
2021/06/06 03:32:46;;;;;;;4.75;4.25;;;17.40;99.90;;;;;;5036320;28;20599;-76
2021/06/06 03:35:13;;;;;;;11.02;7.05;;;17.30;99.90;;;;;;5036552;28;20713;-76
2021/06/06 03:37:40;;;;;;;5.50;4.43;;;17.30;99.90;;;;;;5036371;28;20210;-76
2021/06/06 03:40:07;;;;;;;7.53;4.20;;;17.40;99.90;;;;;;5036048;28;20682;-76
2021/06/06 03:42:35;;;;;;;4.93;4.28;;;17.30;99.90;;;;;;5036319;28;20701;-76
2021/06/06 03:45:04;;;;;;;5.45;4.38;;;17.20;99.90;;;;;;5036403;28;20207;-76
2021/06/06 03:47:30;;;;;;;4.45;4.03;;;17.10;99.90;;;;;;5036106;28;20726;-76
2021/06/06 03:49:56;;;;;;;6.15;4.22;;;17.10;99.90;;;;;;5036115;28;20214;-75
2021/06/06 03:52:23;;;;;;;7.40;4.93;;;17.10;99.90;;;;;;5036156;28;20311;-76
2021/06/06 03:54:51;;;;;;;7.43;5.63;;;17.10;99.90;;;;;;5036018;28;20342;-76
2021/06/06 03:57:18;;;;;;;5.88;3.75;;;17.10;99.90;;;;;;5035998;28;20570;-76
2021/06/06 03:59:44;;;;;;;8.05;3.58;;;17.00;99.90;;;;;;5035835;28;20666;-76
2021/06/06 04:02:12;;;;;;;8.15;4.00;;;17.00;99.90;;;;;;5035854;28;20263;-76
2021/06/06 04:04:38;;;;;;;5.13;3.83;;;16.90;99.90;;;;;;5036034;28;20226;-76
2021/06/06 04:07:04;;;;;;;8.40;3.70;;;16.90;99.90;;;;;;5035942;28;20208;-75
2021/06/06 04:09:31;;;;;;;5.40;3.80;;;16.80;99.90;;;;;;5035846;28;20302;-76
2021/06/06 04:11:57;;;;;;;4.47;3.28;;;16.80;99.90;;;;;;5035561;28;20227;-76
2021/06/06 04:14:24;;;;;;;5.40;3.80;;;16.80;99.90;;;;;;5035771;28;20211;-76
2021/06/06 04:16:50;;;;;;;3.53;3.22;;;16.80;99.90;;;;;;5035819;28;20310;-75
2021/06/06 04:19:17;;;;;;;5.93;3.80;;;16.80;99.90;;;;;;5035753;28;20218;-75
2021/06/06 04:21:44;;;;;;;5.80;3.65;;;16.80;99.90;;;;;;5035291;28;20322;-75
2021/06/06 04:24:10;;;;;;;6.28;3.00;;;16.70;99.90;;;;;;5035715;28;20395;-75
2021/06/06 04:26:36;;;;;;;3.70;3.20;;;16.80;99.90;;;;;;5035306;28;20235;-75
2021/06/06 04:29:03;;;;;;;4.00;3.53;;;16.70;99.90;;;;;;5035592;28;20298;-75
2021/06/06 04:31:30;;;;;;;3.75;3.35;;;16.70;99.90;;;;;;5035152;28;20325;-76
2021/06/06 04:33:56;;;;;;;4.85;3.20;;;16.70;99.90;;;;;;5035237;28;20211;-75
2021/06/06 04:36:24;;;;;;;4.57;3.70;;;16.80;99.90;;;;;;5035241;28;20270;-75
2021/06/06 04:38:50;;;;;;;5.25;3.40;;;16.80;99.90;;;;;;5034721;28;20307;-75
2021/06/06 04:41:17;;;;;;;4.65;2.80;;;16.90;99.90;;;;;;5034549;28;20633;-75
2021/06/06 04:43:44;;;;;;;3.90;3.28;;;16.80;99.90;;;;;;5035090;28;20214;-75
2021/06/06 04:46:11;;;;;;;3.50;3.20;;;16.90;99.90;;;;;;5035253;28;20211;-75
2021/06/06 04:48:39;;;;;;;5.13;3.35;;;16.70;99.90;;;;;;5035220;28;20704;-75
2021/06/06 04:51:10;;;;;;;5.45;3.35;;;16.80;99.90;;;;;;5034846;28;20207;-75
2021/06/06 04:53:38;;;;;;;4.38;3.22;;;16.80;99.90;;;;;;5034797;28;20195;-76
2021/06/06 04:56:05;;;;;;;4.43;3.42;;;16.70;99.90;;;;;;5034902;28;20236;-75
2021/06/06 04:58:33;;;;;;;7.50;4.20;;;16.70;99.90;;;;;;5034981;28;20543;-75
2021/06/06 05:01:00;;;;;;;4.35;3.20;;;16.70;99.90;;;;;;5034820;28;20570;-74
2021/06/06 05:03:26;;;;;;;5.65;3.30;;;16.70;99.90;;;;;;5034932;28;20231;-75
2021/06/06 05:05:53;;;;;;;4.68;3.80;;;16.60;99.90;;;;;;5034802;28;20200;-74
2021/06/06 05:08:22;;;;;;;3.92;3.53;;;16.60;99.90;;;;;;5034702;28;20235;-75
2021/06/06 05:10:51;;;;;;;5.15;3.17;;;16.60;99.90;;;;;;5034533;28;20207;-74
2021/06/06 05:13:18;;;;;;;5.13;3.72;;;16.70;99.90;;;;;;5034682;28;20223;-75
2021/06/06 05:15:45;;;;;;;4.93;3.00;;;16.80;99.90;;;;;;5034609;28;20319;-75
2021/06/06 05:18:12;;;;;;;5.60;3.40;;;16.80;99.90;;;;;;5034555;28;20245;-75
2021/06/06 05:20:41;;;;;;;7.18;4.20;;;16.80;99.90;;;;;;5034221;28;20677;-74
2021/06/06 05:23:08;;;;;;;4.78;3.42;;;16.80;99.90;;;;;;5034539;28;20596;-75
2021/06/06 05:25:36;;;;;;;5.25;2.92;;;16.80;99.90;;;;;;5034456;28;20286;-75
2021/06/06 05:28:05;;;;;;;6.07;3.90;;;16.80;99.90;;;;;;5034277;28;20290;-75
2021/06/06 05:30:34;;;;;;;5.13;3.50;;;16.80;99.90;;;;;;5034147;28;20633;-75
2021/06/06 05:33:01;;;;;;;5.90;3.88;;;16.80;99.90;;;;;;5034182;28;20237;-75
2021/06/06 05:35:30;;;;;;;7.13;3.28;;;16.60;99.90;;;;;;5034181;28;20638;-75
2021/06/06 05:37:56;;;;;;;5.88;3.45;;;16.60;99.90;;;;;;5034288;28;20215;-75
2021/06/06 05:40:23;;;;;;;7.30;3.65;;;16.60;99.90;;;;;;5033799;28;20301;-75
2021/06/06 05:42:50;;;;;;;6.15;4.35;;;16.60;99.90;;;;;;5034153;28;20227;-75
2021/06/06 05:45:19;;;;;;;5.18;4.20;;;16.70;99.90;;;;;;5034043;28;20353;-75
2021/06/06 05:47:46;;;;;;;6.10;4.20;;;16.70;99.90;;;;;;5033993;28;20216;-75
2021/06/06 05:50:14;;;;;;;4.95;3.60;;;16.70;99.90;;;;;;5033590;28;20695;-75
2021/06/06 05:52:40;;;;;;;6.95;4.40;;;16.60;99.90;;;;;;5034051;28;20263;-75
2021/06/06 05:55:08;;;;;;;7.05;4.47;;;16.50;99.90;;;;;;5033948;28;20333;-75
2021/06/06 05:57:35;;;;;;;7.78;4.38;;;16.60;99.90;;;;;;5033953;28;20213;-74
2021/06/06 06:00:01;;;;;;;7.50;4.35;;;16.60;99.90;;;;;;5033750;28;20341;-74
2021/06/06 06:02:29;;;;;;;6.70;4.55;;;16.60;99.90;;;;;;5033638;28;20227;-75
2021/06/06 06:04:55;;;;;;;6.35;4.45;;;16.60;99.90;;;;;;5033868;28;20202;-75
2021/06/06 06:07:21;;;;;;;7.85;5.00;;;16.60;99.90;;;;;;5033826;28;20231;-75
2021/06/06 06:09:48;;;;;;;6.78;4.60;;;16.60;99.90;;;;;;5033426;28;20203;-75
2021/06/06 06:12:14;;;;;;;8.90;6.18;;;16.60;99.90;;;;;;5033542;28;20234;-75
2021/06/06 06:14:40;;;;;;;7.22;4.45;;;16.60;99.90;;;;;;5033731;28;20573;-74
2021/06/06 06:17:07;;;;;;;8.88;5.07;;;16.60;99.90;;;;;;5033593;28;20294;-75
2021/06/06 06:19:34;;;;;;;6.05;4.80;;;16.60;99.90;;;;;;5033756;28;20210;-75
2021/06/06 06:22:01;;;;;;;5.82;4.75;;;16.60;99.90;;;;;;5033220;28;20265;-75
2021/06/06 06:24:27;;;;;;;8.88;5.57;;;16.60;99.90;;;;;;5033617;28;20203;-75
2021/06/06 06:26:55;;;;;;;9.13;5.43;;;16.50;99.90;;;;;;5033357;28;20203;-75
2021/06/06 06:29:22;;;;;;;7.35;4.97;;;16.50;99.90;;;;;;5033583;28;20298;-75
2021/06/06 06:31:49;;;;;;;11.25;7.30;;;16.50;99.90;;;;;;5033065;28;20635;-75
2021/06/06 06:34:15;;;;;;;6.70;4.93;;;16.70;99.90;;;;;;5033599;28;20211;-75
2021/06/06 06:36:43;;;;;;;8.52;5.13;;;16.50;99.90;;;;;;5033263;28;20319;-75
2021/06/06 06:39:10;;;;;;;7.07;5.57;;;16.50;99.90;;;;;;5033459;28;20291;-75
2021/06/06 06:41:36;;;;;;;9.27;5.93;;;16.40;99.90;;;;;;5033102;28;20265;-75
2021/06/06 06:44:02;;;;;;;7.35;4.22;;;16.40;99.90;;;;;;5033421;28;20257;-75
2021/06/06 06:46:29;;;;;;;9.38;5.30;;;16.50;99.90;;;;;;5033397;28;20200;-75
2021/06/06 06:48:56;;;;;;;9.40;5.13;;;16.40;99.90;;;;;;5033373;28;20294;-75
2021/06/06 06:51:25;;;;;;;7.95;5.32;;;16.40;99.90;;;;;;5033160;28;20655;-75
2021/06/06 06:53:54;;;;;;;6.32;5.22;;;16.50;99.90;;;;;;5033398;28;20298;-75
2021/06/06 06:56:21;;;;;;;7.00;4.95;;;16.30;99.90;;;;;;5033173;28;20256;-75
2021/06/06 06:58:49;;;;;;;8.52;6.07;;;16.20;99.90;;;;;;5033250;28;20211;-75
2021/06/06 07:01:15;;;;;;;9.45;5.50;;;16.30;99.90;;;;;;5032997;28;20294;-76
2021/06/06 07:03:42;;;;;;;7.20;5.35;;;16.40;99.90;;;;;;5035880;28;20325;-75
2021/06/06 07:06:08;;;;;;;8.00;6.13;;;16.40;99.90;;;;;;5037099;28;20401;-75
2021/06/06 07:08:38;;;;;;;11.15;6.13;;;16.50;99.90;;;;;;5037118;28;20341;-75
2021/06/06 07:11:09;;;;;;;8.13;5.13;;;16.50;99.90;;;;;;5036948;28;20257;-75
2021/06/06 07:13:35;;;;;;;6.15;4.50;;;16.60;99.90;;;;;;5037098;28;20234;-75
2021/06/06 07:16:03;;;;;;;7.28;5.40;;;16.60;99.90;;;;;;5036929;28;20727;-75
2021/06/06 07:18:29;;;;;;;7.32;4.53;;;16.60;99.90;;;;;;5036712;28;20239;-75
2021/06/06 07:20:59;;;;;;;6.07;4.97;;;16.60;99.90;;;;;;5036591;28;20221;-75
2021/06/06 07:23:27;;;;;;;7.82;5.50;;;16.60;99.90;;;;;;5036799;28;20255;-75
2021/06/06 07:25:56;;;;;;;6.90;5.15;;;16.40;99.90;;;;;;5036714;28;20286;-75
2021/06/06 07:28:25;;;;;;;6.13;4.15;;;16.40;99.90;;;;;;5036974;28;20207;-75
2021/06/06 07:30:56;;;;;;;6.95;5.03;;;16.50;99.90;;;;;;5036351;28;20736;-75
2021/06/06 07:33:25;;;;;;;6.78;4.97;;;16.50;99.90;;;;;;5036356;28;20223;-75
2021/06/06 07:35:52;;;;;;;6.90;5.32;;;16.50;99.90;;;;;;5036535;28;20628;-75
2021/06/06 07:38:19;;;;;;;6.18;4.85;;;16.50;99.90;;;;;;5036448;28;20677;-75
2021/06/06 07:40:47;;;;;;;7.47;5.30;;;16.60;99.90;;;;;;5036362;28;20671;-75
2021/06/06 07:43:14;;;;;;;6.80;4.95;;;16.60;99.90;;;;;;5036486;28;20224;-75
2021/06/06 07:45:42;;;;;;;7.60;5.38;;;16.60;99.90;;;;;;5036265;28;20658;-75
2021/06/06 07:48:09;;;;;;;7.97;4.90;;;16.70;99.90;;;;;;5036244;28;20663;-75
2021/06/06 07:50:39;;;;;;;7.00;5.03;;;16.80;99.90;;;;;;5036092;28;20212;-75
2021/06/06 07:53:05;;;;;;;11.95;5.50;;;16.90;99.90;;;;;;5036282;28;20224;-75
2021/06/06 07:55:33;;;;;;;7.13;5.03;;;16.80;99.90;;;;;;5036146;28;20237;-75
2021/06/06 07:57:59;;;;;;;7.63;5.78;;;16.90;99.90;;;;;;5036212;28;20297;-75
2021/06/06 08:00:29;;;;;;;6.35;5.40;;;16.80;99.90;;;;;;5035881;28;20756;-75
2021/06/06 08:02:57;;;;;;;7.80;5.85;;;16.70;99.90;;;;;;5036060;28;20231;-75
2021/06/06 08:05:24;;;;;;;8.95;7.22;;;16.50;99.90;;;;;;5035917;28;20289;-75
2021/06/06 08:07:51;;;;;;;10.48;6.97;;;16.30;99.90;;;;;;5035967;28;20545;-75
2021/06/06 08:10:21;;;;;;;7.72;5.90;;;16.30;99.90;;;;;;5035802;28;20207;-75
2021/06/06 08:12:47;;;;;;;9.95;6.55;;;16.40;99.90;;;;;;5035931;28;20229;-75
2021/06/06 08:15:14;;;;;;;8.90;6.18;;;16.50;99.90;;;;;;5035757;28;20314;-75
2021/06/06 08:17:40;;;;;;;8.73;6.13;;;16.50;99.90;;;;;;5035832;28;20265;-75
2021/06/06 08:20:14;;;;;;;9.30;5.72;;;16.60;99.90;;;;;;5035512;28;20314;-75
2021/06/06 08:22:40;;;;;;;12.15;6.75;;;16.60;99.90;;;;;;5035478;28;20310;-75
2021/06/06 08:25:10;;;;;;;11.52;6.85;;;16.60;99.90;;;;;;5035695;28;20204;-75
2021/06/06 08:27:37;;;;;;;10.20;6.70;;;16.50;99.90;;;;;;5035474;28;20294;-75
2021/06/06 08:30:06;;;;;;;10.95;7.68;;;16.60;99.90;;;;;;5035252;28;20214;-76
2021/06/06 08:32:32;;;;;;;10.93;6.70;;;16.70;99.90;;;;;;5035124;28;20319;-75
2021/06/06 08:34:59;;;;;;;12.73;6.95;;;16.60;99.90;;;;;;5035392;28;20234;-75
2021/06/06 08:37:26;;;;;;;7.90;6.22;;;16.60;99.90;;;;;;5035443;28;20268;-75
2021/06/06 08:39:53;;;;;;;10.82;6.70;;;16.70;99.90;;;;;;5035393;28;20333;-76
2021/06/06 08:42:23;;;;;;;9.60;6.80;;;16.70;99.90;;;;;;5035075;28;20259;-75
2021/06/06 08:45:02;;;;;;;10.73;6.68;;;16.70;99.90;;;;;;5035607;28;20240;-76
2021/06/06 08:47:32;;;;;;;12.13;6.65;;;16.70;99.90;;;;;;5035295;28;20731;-76
2021/06/06 08:50:01;;;;;;;14.43;6.05;;;16.80;99.90;;;;;;5035116;28;20253;-76
2021/06/06 08:52:36;;;;;;;13.68;8.15;;;16.80;99.90;;;;;;5035528;28;20374;-75
2021/06/06 08:55:08;;;;;;;12.55;6.75;;;16.80;99.90;;;;;;5035146;28;20194;-75
2021/06/06 08:57:39;;;;;;;12.43;6.68;;;16.60;99.90;;;;;;5035081;28;20204;-76
2021/06/06 09:00:11;;;;;;;10.00;6.72;;;16.60;99.90;;;;;;5034950;28;20282;-76
2021/06/06 09:02:47;;;;;;;11.57;6.95;;;16.70;99.90;;;;;;5035038;28;20227;-75
2021/06/06 09:05:28;;;;;;;10.68;6.15;;;16.80;99.90;;;;;;5034945;28;20200;-76
2021/06/06 09:07:58;;;;;;;10.48;6.45;;;16.90;99.90;;;;;;5035333;28;20204;-76
2021/06/06 09:10:27;;;;;;;11.60;6.75;;;17.00;99.90;;;;;;5034714;28;20212;-75
2021/06/06 09:12:55;;;;;;;10.55;6.30;;;17.00;99.90;;;;;;5034773;28;20318;-75
2021/06/06 09:15:26;;;;;;;10.43;7.07;;;17.10;99.90;;;;;;5034631;28;20277;-75
2021/06/06 09:17:56;;;;;;;10.80;6.15;;;17.00;99.90;;;;;;5034738;28;20622;-75
2021/06/06 09:20:28;;;;;;;9.98;5.85;;;16.90;99.90;;;;;;5034344;28;20216;-75
2021/06/06 09:23:10;;;;;;;12.60;8.30;;;17.00;99.90;;;;;;5034635;28;20228;-75
2021/06/06 09:25:38;;;;;;;12.00;6.25;;;16.90;99.90;;;;;;5034067;28;20204;-75
2021/06/06 09:28:07;;;;;;;9.38;6.50;;;17.00;99.90;;;;;;5034651;28;20287;-75
2021/06/06 09:30:35;;;;;;;14.65;7.10;;;16.90;99.90;;;;;;5034128;28;20208;-74
2021/06/06 09:33:09;;;;;;;14.63;7.70;;;16.90;99.90;;;;;;5034081;28;20261;-75
2021/06/06 09:35:38;;;;;;;12.13;7.70;;;16.90;99.90;;;;;;5034325;28;20311;-75
2021/06/06 09:38:14;;;;;;;11.65;7.82;;;16.80;99.90;;;;;;5034153;28;20740;-75
2021/06/06 09:40:42;;;;;;;14.20;7.30;;;16.90;99.90;;;;;;5034212;28;20636;-75
2021/06/06 09:43:22;;;;;;;11.50;7.32;;;17.00;99.90;;;;;;5034045;28;20311;-75
2021/06/06 09:45:48;;;;;;;14.13;7.05;;;16.90;99.90;;;;;;5034215;28;20200;-75
2021/06/06 09:48:24;;;;;;;11.55;7.00;;;17.00;99.90;;;;;;5033970;28;20231;-74
2021/06/06 09:50:53;;;;;;;12.77;7.65;;;16.80;99.90;;;;;;5033973;28;20274;-75
2021/06/06 09:53:24;;;;;;;13.63;7.88;;;16.70;99.90;;;;;;5034051;28;20318;-75
2021/06/06 09:55:50;;;;;;;11.38;8.00;;;16.70;99.90;;;;;;5033912;28;20255;-75
2021/06/06 09:58:29;;;;;;;12.80;7.63;;;16.70;99.90;;;;;;5033964;28;20213;-75
2021/06/06 10:01:00;;;;;;;13.05;7.47;;;16.70;99.90;;;;;;5033796;28;20302;-75
2021/06/06 10:03:32;;;;;;;12.20;8.48;;;16.70;99.90;;;;;;5033955;28;20292;-75
2021/06/06 10:06:26;;;;;;;14.13;9.70;;;16.70;99.90;;;;;;5033858;28;20293;-75
2021/06/06 10:09:25;;;;;;;18.38;11.00;;;16.70;99.90;;;;;;5033862;28;20212;-75
2021/06/06 10:11:57;;;;;;;18.23;11.15;;;16.80;99.90;;;;;;5032653;28;20315;-75
2021/06/06 10:14:30;;;;;;;19.52;11.70;;;16.90;99.90;;;;;;5033796;28;20282;-75
2021/06/06 10:16:59;;;;;;;23.30;12.70;;;16.90;99.90;;;;;;5033677;28;20321;-75
2021/06/06 10:19:31;;;;;;;22.48;11.52;;;16.80;99.90;;;;;;5034120;28;20226;-75
2021/06/06 10:22:01;;;;;;;21.45;12.18;;;16.80;99.90;;;;;;5033558;28;20226;-75
2021/06/06 10:24:33;;;;;;;24.63;12.75;;;16.80;99.90;;;;;;5033766;28;20611;-75
2021/06/06 10:27:06;;;;;;;22.60;13.38;;;16.90;99.90;;;;;;5033126;28;20239;-75
2021/06/06 10:29:39;;;;;;;20.38;12.32;;;16.90;99.90;;;;;;5034277;28;20291;-75
2021/06/06 10:32:09;;;;;;;23.42;12.45;;;16.90;99.90;;;;;;5033064;28;20710;-74
2021/06/06 10:34:40;;;;;;;22.45;12.80;;;16.90;99.90;;;;;;5033658;28;20281;-75
2021/06/06 10:37:07;;;;;;;22.40;13.73;;;16.90;99.90;;;;;;5033157;28;20316;-74
2021/06/06 10:39:42;;;;;;;22.38;12.30;;;16.90;99.90;;;;;;5037582;28;20234;-75
2021/06/06 10:42:13;;;;;;;21.45;13.40;;;17.00;99.90;;;;;;5037470;28;20314;-75
2021/06/06 10:44:50;;;;;;;22.20;13.65;;;17.00;99.90;;;;;;5037599;28;20242;-74
2021/06/06 10:47:23;;;;;;;23.20;13.65;;;16.90;99.90;;;;;;5037530;28;20200;-74
2021/06/06 10:49:53;;;;;;;23.95;13.57;;;16.80;99.90;;;;;;5037312;28;20293;-76
2021/06/06 10:52:25;;;;;;;23.20;14.52;;;16.90;99.90;;;;;;5037228;28;20362;-75
2021/06/06 10:54:56;;;;;;;30.65;15.10;;;17.00;99.90;;;;;;5037334;28;20208;-75
2021/06/06 10:57:33;;;;;;;31.95;15.50;;;17.10;99.90;;;;;;5037200;28;20689;-75
2021/06/06 11:00:26;;;;;;;26.02;15.32;;;17.10;99.90;;;;;;5037514;28;20211;-75
2021/06/06 11:02:56;;;;;;;24.10;14.25;;;17.10;99.90;;;;;;5033350;28;20736;-75
2021/06/06 11:05:44;;;;;;;24.08;13.55;;;17.10;99.90;;;;;;5037244;28;20292;-75
2021/06/06 11:08:40;;;;;;;24.80;14.88;;;17.20;99.90;;;;;;5037159;28;20233;-74
2021/06/06 11:11:21;;;;;;;26.88;15.45;;;17.30;99.90;;;;;;5036715;28;20213;-75
2021/06/06 11:13:50;;;;;;;26.70;14.25;;;17.40;99.90;;;;;;5037140;28;20279;-74
2021/06/06 11:16:33;;;;;;;30.92;16.27;;;17.30;99.90;;;;;;5036900;28;20606;-74
2021/06/06 11:19:03;;;;;;;32.55;15.70;;;17.40;99.90;;;;;;5036919;28;20294;-75
2021/06/06 11:21:37;;;;;;;29.23;15.68;;;17.40;99.90;;;;;;5036901;28;20228;-74
2021/06/06 11:24:07;;;;;;;32.20;15.60;;;17.50;99.90;;;;;;5036961;28;20267;-75
2021/06/06 11:26:44;;;;;;;30.85;16.63;;;17.40;99.90;;;;;;5036687;28;20227;-74
2021/06/06 11:29:14;;;;;;;29.05;15.38;;;17.40;99.90;;;;;;5036771;28;20323;-74
2021/06/06 11:31:59;;;;;;;37.63;19.60;;;17.40;99.90;;;;;;5036258;28;20228;-75
2021/06/06 11:34:29;;;;;;;41.55;19.63;;;17.20;99.90;;;;;;5036674;28;20204;-74
2021/06/06 11:37:04;;;;;;;36.85;19.83;;;17.20;99.90;;;;;;5036532;28;20318;-75
2021/06/06 11:39:38;;;;;;;36.15;19.13;;;17.10;99.90;;;;;;5036597;28;20211;-75
2021/06/06 11:42:23;;;;;;;38.72;20.10;;;17.10;99.90;;;;;;5036222;28;20258;-75
2021/06/06 11:44:52;;;;;;;35.47;18.20;;;17.10;99.90;;;;;;5036260;28;20681;-75
2021/06/06 11:47:24;;;;;;;38.67;17.75;;;17.10;99.90;;;;;;5036204;28;20215;-74
2021/06/06 11:49:54;;;;;;;38.45;19.13;;;17.10;99.90;;;;;;5035742;28;20254;-75
2021/06/06 11:52:29;;;;;;;36.22;20.15;;;17.00;99.90;;;;;;5036345;28;20238;-75
2021/06/06 11:54:58;;;;;;;36.40;18.85;;;16.90;99.90;;;;;;5036340;28;20293;-75
2021/06/06 11:57:31;;;;;;;36.40;19.88;;;17.00;99.90;;;;;;5035979;28;20230;-75
2021/06/06 12:00:03;;;;;;;40.28;20.25;;;17.10;99.90;;;;;;5036062;28;20258;-75
2021/06/06 12:02:32;;;;;;;32.75;18.58;;;17.20;99.90;;;;;;5035942;28;20239;-75
2021/06/06 12:05:09;;;;;;;43.63;19.35;;;17.20;99.90;;;;;;5035770;28;20208;-74
2021/06/06 12:07:35;;;;;;;33.30;18.65;;;17.30;99.90;;;;;;5036073;28;20237;-75
2021/06/06 12:10:04;;;;;;;31.50;17.30;;;17.30;99.90;;;;;;5035641;28;20208;-75
2021/06/06 12:12:36;;;;;;;31.23;18.23;;;17.40;99.90;;;;;;5035709;28;20342;-75
2021/06/06 12:15:09;;;;;;;33.33;17.90;;;17.50;99.90;;;;;;5035693;28;20648;-75
2021/06/06 12:17:37;;;;;;;30.55;17.08;;;17.50;99.90;;;;;;5035759;28;20323;-75
2021/06/06 12:20:08;;;;;;;30.30;17.20;;;17.50;99.90;;;;;;5035404;28;20216;-75
2021/06/06 12:22:36;;;;;;;28.75;15.30;;;17.40;99.90;;;;;;5035794;28;20567;-75
2021/06/06 12:25:09;;;;;;;26.90;16.13;;;17.40;99.90;;;;;;5035694;28;20206;-75
2021/06/06 12:27:41;;;;;;;30.38;17.02;;;17.50;99.90;;;;;;5035622;28;20724;-75
2021/06/06 12:30:16;;;;;;;30.25;14.77;;;17.40;99.90;;;;;;5035449;28;20250;-75
2021/06/06 12:32:50;;;;;;;27.38;14.80;;;17.40;99.90;;;;;;5035342;28;20234;-75
2021/06/06 12:35:18;;;;;;;25.67;14.88;;;17.50;99.90;;;;;;5035500;28;20212;-75
2021/06/06 12:37:48;;;;;;;28.13;15.35;;;17.50;99.90;;;;;;5035473;28;20208;-75
2021/06/06 12:40:16;;;;;;;24.90;15.52;;;17.50;99.90;;;;;;5035163;28;20200;-75
2021/06/06 12:42:45;;;;;;;27.88;17.05;;;17.40;99.90;;;;;;5035365;28;20630;-75
2021/06/06 12:45:16;;;;;;;26.20;15.98;;;17.30;99.90;;;;;;5035369;28;20294;-75
2021/06/06 12:47:45;;;;;;;26.48;15.77;;;17.40;99.90;;;;;;5035309;28;20291;-75
2021/06/06 12:50:23;;;;;;;27.58;14.90;;;17.50;99.90;;;;;;5035051;28;20306;-75
2021/06/06 12:52:52;;;;;;;27.25;14.63;;;17.60;99.90;;;;;;5035143;28;20266;-75